Bei Facebook empfehlenBei Twitter postenGoogle plusPinterest

Das Wetter im Erzgebirge am 02.05.2015

Wetter und Klima am 02.05.2015 Holzhau im Erzgebirge (630m ü.NN)
Letzte gemessene Temperatur und Uhrzeit der Messung23:45:00 Uhr2.10 °C
Temperatur (Maximum / Höchstwert) und Uhrzeit der Messung17:15:00 Uhr13.90 °C
Temperatur (Minimum / Tiefstwert) und Uhrzeit der Messung06:15:00-1.10 °C
Errechneter Absolutwert der Temperaturschwankungen zwischen Tmin und Tmax des Tages15.00 K
Errechnete Tagesmitteltemperatur6.81354 °C
Gesamt - Niederschlag des Tages (in flüssiger Form)0.00 Liter / m²
Luftdruck (Maximum / Höchstwert) und Zeitpunkt der Messung23:00:00 Uhr1011.30 hPa
Luftdruck (Minimum / Tiefstwert) und Zeitpunkt der Messung00:15:00 Uhr1005.30 hPa
Errechneter Absolutwert der Luftdruckschwankungen des Tages6.00 hPa
Höchste gemessene Windgeschwindigkeit und Uhrzeit der Messung12:15:00 Uhr12.24 km/h
Errechnete Windhäufigkeit in Relation zu den Messwerten des Tages7.29167 %
Niedrigste Windkühle (Windchill) und Zeitpunkt der Messung06:15:00 Uhr-1.10 °C
Taupunkt (Maximum / Höchstwert) und Uhrzeit der Messung08:45:00 Uhr4.50 °C
Taupunkt (Minimum / Tiefstwert) und Uhrzeit der Messung06:15:00-2.70 °C
Anzahl der automatisch eingelesenen Messwerte 96

Detaillierte Wetter- und Klima- Messwerte für den 02.05.2015 in Holzhau im Erzgebirge (630m ü.NN)
ZeitTemperaturLuftdruckRel. LuftfeuchteWindWindrichtungWindchillTaupunktNiederschlag l/m²
23:45:002.10 °C1011.00 hPa84.00 %-0.30 °C 
23:30:002.30 °C1010.90 hPa83.00 %-0.30 °C 
23:15:002.60 °C1011.20 hPa82.00 %-0.20 °C 
23:00:002.90 °C1011.30 hPa82.00 %0.10 °C 
22:45:003.30 °C1011.30 hPa82.00 %0.50 °C 
22:30:003.50 °C1011.30 hPa81.00 %0.60 °C 
22:15:003.60 °C1011.00 hPa80.00 %0.50 °C 
22:00:003.80 °C1011.00 hPa78.00 %0.30 °C 
21:45:004.20 °C1011.00 hPa78.00 %0.70 °C 
21:30:004.40 °C1011.10 hPa76.00 %0.60 °C 
21:15:004.90 °C1011.00 hPa73.00 %0.50 °C 
21:00:005.70 °C1010.80 hPa71.00 %0.90 °C 
20:45:006.60 °C1010.60 hPa69.00 %1.30 °C 
20:30:007.50 °C1010.80 hPa66.00 %1.60 °C 
20:15:008.70 °C1010.60 hPa63.00 %2.10 °C 
20:00:009.80 °C1010.40 hPa60.00 %2.40 °C 
19:45:0010.40 °C1010.50 hPa57.00 %2.30 °C 
19:30:0010.90 °C1010.20 hPa54.00 %2.00 °C 
19:15:0011.40 °C1010.20 hPa53.00 %2.20 °C 
19:00:0011.80 °C1010.50 hPa52.00 %2.30 °C 
18:45:0012.10 °C1010.40 hPa50.00 %2.00 °C 
18:30:0012.60 °C1010.30 hPa50.00 %2.50 °C 
18:15:0012.90 °C1010.20 hPa50.00 %2.70 °C 
18:00:0013.10 °C1010.00 hPa49.00 %2.60 °C 
17:45:0013.40 °C1010.20 hPa48.00 %2.60 °C 
17:30:0013.60 °C1010.20 hPa49.00 %3.10 °C 
17:15:0013.90 °C1010.10 hPa47.00 %2.80 °C 
17:00:0013.90 °C1009.90 hPa48.00 %3.10 °C 
16:45:0013.60 °C1010.00 hPa49.00 %3.10 °C 
16:30:0013.60 °C1009.90 hPa49.00 %3.10 °C 
16:15:0013.60 °C1009.90 hPa49.00 %3.10 °C 
16:00:0013.40 °C1009.90 hPa49.00 %6.48 km/hW13.30 °C2.90 °C 
15:45:0013.80 °C1010.00 hPa49.00 %6.84 km/hSSW13.70 °C3.30 °C 
15:30:0013.50 °C1010.10 hPa52.00 %3.80 °C 
15:15:0013.20 °C1010.20 hPa48.00 %2.40 °C 
15:00:0013.40 °C1010.10 hPa51.00 %3.50 °C 
14:45:0012.80 °C1010.10 hPa51.00 %2.90 °C 
14:30:0012.20 °C1010.10 hPa48.00 %1.50 °C 
14:15:0012.80 °C1010.10 hPa50.00 %2.60 °C 
14:00:0012.60 °C1010.10 hPa53.00 %4.32 km/hW12.60 °C3.30 °C 
13:45:0012.80 °C1010.30 hPa51.00 %2.90 °C 
13:30:0011.70 °C1010.40 hPa54.00 %2.70 °C 
13:15:0011.30 °C1010.20 hPa53.00 %2.10 °C 
13:00:0011.30 °C1010.30 hPa52.00 %1.80 °C 
12:45:0012.10 °C1010.20 hPa51.00 %2.30 °C 
12:30:0011.70 °C1010.30 hPa51.00 %1.90 °C 
12:15:0011.90 °C1010.10 hPa56.00 %12.24 km/hNNW10.60 °C3.40 °C 
12:00:0011.40 °C1010.00 hPa58.00 %3.40 °C 
11:45:0010.60 °C1010.00 hPa60.00 %2.88 km/hNW10.60 °C3.20 °C 
11:30:0010.70 °C1009.90 hPa57.00 %8.64 km/hWNW9.70 °C2.50 °C 
11:15:0010.30 °C1009.80 hPa59.00 %2.70 °C 
11:00:0010.00 °C1009.60 hPa63.00 %3.30 °C 
10:45:009.60 °C1009.80 hPa62.00 %2.70 °C 
10:30:009.90 °C1009.70 hPa63.00 %3.20 °C 
10:15:0010.00 °C1009.60 hPa65.00 %6.84 km/hWNW9.30 °C3.70 °C 
10:00:009.20 °C1009.60 hPa66.00 %3.20 °C 
09:45:008.50 °C1009.60 hPa68.00 %2.90 °C 
09:30:008.90 °C1009.30 hPa71.00 %3.90 °C 
09:15:008.30 °C1009.20 hPa72.00 %3.60 °C 
09:00:007.80 °C1008.90 hPa75.00 %3.70 °C 
08:45:007.40 °C1008.50 hPa82.00 %4.50 °C 
08:30:006.40 °C1008.40 hPa86.00 %4.20 °C 
08:15:005.30 °C1008.50 hPa88.00 %3.50 °C 
08:00:004.30 °C1008.40 hPa90.00 %2.80 °C 
07:45:002.90 °C1008.30 hPa91.00 %1.60 °C 
07:30:001.90 °C1008.30 hPa91.00 %0.60 °C 
07:15:001.00 °C1007.80 hPa91.00 %-0.30 °C 
07:00:00-0.40 °C1007.90 hPa90.00 %-2.00 °C 
06:45:00-0.60 °C1007.80 hPa90.00 %-2.20 °C 
06:30:00-0.90 °C1007.60 hPa90.00 %-2.50 °C 
06:15:00-1.10 °C1007.30 hPa90.00 %-2.70 °C 
06:00:00-1.00 °C1006.90 hPa90.00 %-2.60 °C 
05:45:00-0.80 °C1006.80 hPa89.00 %-2.60 °C 
05:30:00-0.70 °C1006.80 hPa89.00 %-2.50 °C 
05:15:00-0.50 °C1006.60 hPa89.00 %-2.30 °C 
05:00:00-0.20 °C1006.60 hPa89.00 %-2.00 °C 
04:45:00-0.40 °C1006.40 hPa88.00 %-2.30 °C 
04:30:00-0.10 °C1006.30 hPa88.00 %-2.00 °C 
04:15:000.20 °C1006.20 hPa88.00 %-1.50 °C 
04:00:000.60 °C1006.20 hPa87.00 %-1.30 °C 
03:45:001.10 °C1006.10 hPa87.00 %-0.80 °C 
03:30:001.70 °C1006.00 hPa87.00 %-0.20 °C 
03:15:002.20 °C1005.90 hPa87.00 %0.30 °C 
03:00:002.60 °C1005.90 hPa87.00 %0.70 °C 
02:45:002.60 °C1005.90 hPa87.00 %0.70 °C 
02:30:002.70 °C1006.00 hPa87.00 %0.80 °C 
02:15:002.60 °C1005.70 hPa87.00 %0.70 °C 
02:00:002.60 °C1006.00 hPa87.00 %0.70 °C 
01:45:002.50 °C1005.70 hPa87.00 %0.60 °C 
01:30:002.50 °C1005.90 hPa87.00 %0.60 °C 
01:15:002.40 °C1005.80 hPa86.00 %0.30 °C 
01:00:002.30 °C1005.80 hPa86.00 %0.20 °C 
00:45:002.40 °C1005.80 hPa86.00 %0.30 °C 
00:30:002.60 °C1005.60 hPa86.00 %0.50 °C 
00:15:002.70 °C1005.30 hPa85.00 %0.40 °C 
00:00:002.90 °C1005.30 hPa85.00 %0.60 °C 

Permanenter Link zu dieser Seite: Wetter im Erzgebirge am 02.05.2015
Performance-Info: Die Erstellung der Seite / Statistik(en) / Tabelle(n) erforderte 5 Datenbankserver-Abfrage(n) und dauerte 99 Millisekunden. (Dieser Messwert ist von der Gesamt-Auslastung des Servers abhängig.)
Erzgebirge - Wetter | Erzgebirge - Wetter (Mobilgeräte) | Komplette Klimadatenbank